createdAt,value
2018-08-22T00:01:28.311Z,18.60
2018-08-22T00:06:31.323Z,18.60
2018-08-22T00:11:34.343Z,18.50
2018-08-22T00:16:37.352Z,18.50
2018-08-22T00:21:40.375Z,18.50
2018-08-22T00:26:43.386Z,18.50
2018-08-22T00:31:46.440Z,18.40
2018-08-22T00:36:49.470Z,18.40
2018-08-22T00:41:52.496Z,18.30
2018-08-22T00:46:55.518Z,18.20
2018-08-22T00:51:58.534Z,18.20
2018-08-22T00:57:01.530Z,18.20
2018-08-22T01:02:04.664Z,18.10
2018-08-22T01:07:07.747Z,18.10
2018-08-22T01:12:10.747Z,18.10
2018-08-22T01:17:13.783Z,18.00
2018-08-22T01:22:16.855Z,18.00
2018-08-22T01:27:22.750Z,17.90
2018-08-22T01:42:31.627Z,17.80
2018-08-22T01:47:34.660Z,17.70
2018-08-22T01:52:37.743Z,17.60
2018-08-22T01:57:40.774Z,17.60
2018-08-22T02:02:43.899Z,17.50
2018-08-22T02:07:46.915Z,17.50
2018-08-22T02:12:49.955Z,17.40
2018-08-22T02:17:52.974Z,17.40
2018-08-22T02:22:56.015Z,17.40
2018-08-22T02:27:59.031Z,17.30
2018-08-22T02:33:02.123Z,17.30
2018-08-22T02:38:05.614Z,17.20
2018-08-22T02:43:08.664Z,17.10
2018-08-22T02:48:11.708Z,17.10
2018-08-22T02:53:14.745Z,17.10
2018-08-22T02:58:17.800Z,17.00
2018-08-22T03:03:20.821Z,17.00
2018-08-22T03:08:24.144Z,17.00
2018-08-22T03:13:27.337Z,16.90
2018-08-22T03:18:30.519Z,16.90
2018-08-22T03:23:33.542Z,16.90
2018-08-22T03:28:36.631Z,16.80
2018-08-22T03:33:40.748Z,16.80
2018-08-22T03:38:43.871Z,16.80
2018-08-22T03:43:46.959Z,16.70
2018-08-22T03:48:49.986Z,16.70
2018-08-22T03:53:52.993Z,16.70
2018-08-22T03:58:56.005Z,16.60
2018-08-22T04:03:59.045Z,16.60
2018-08-22T04:09:02.083Z,16.50
2018-08-22T04:14:05.132Z,16.50
2018-08-22T04:19:08.157Z,16.50
2018-08-22T04:24:11.212Z,16.50
2018-08-22T04:29:14.237Z,16.50
2018-08-22T04:34:17.293Z,16.50
2018-08-22T04:39:20.341Z,16.50
2018-08-22T04:44:23.380Z,16.50
2018-08-22T04:49:26.565Z,16.60
2018-08-22T04:54:29.631Z,16.60
2018-08-22T04:59:32.736Z,16.70
2018-08-22T05:04:35.768Z,16.70
2018-08-22T05:09:38.792Z,16.90
2018-08-22T05:14:41.836Z,17.00
2018-08-22T05:19:44.875Z,17.20
2018-08-22T05:24:47.938Z,17.30
2018-08-22T05:29:50.940Z,17.50
2018-08-22T05:34:53.958Z,17.60
2018-08-22T05:39:56.962Z,17.70
2018-08-22T05:45:00.062Z,17.80
2018-08-22T05:50:03.072Z,18.00
2018-08-22T05:55:06.098Z,18.20
2018-08-22T06:00:09.132Z,18.40
2018-08-22T06:05:12.152Z,18.60
2018-08-22T06:10:15.188Z,18.70
2018-08-22T06:15:18.231Z,18.80
2018-08-22T06:20:21.285Z,18.90
2018-08-22T06:25:24.378Z,19.10
2018-08-22T06:30:27.397Z,19.30
2018-08-22T06:35:30.435Z,19.50
2018-08-22T06:40:33.853Z,19.60
2018-08-22T06:45:37.112Z,19.70
2018-08-22T06:50:40.316Z,19.80
2018-08-22T06:55:43.355Z,20.00
2018-08-22T07:00:46.448Z,20.10
2018-08-22T07:05:49.535Z,20.40
2018-08-22T07:10:52.577Z,20.80
2018-08-22T07:15:55.689Z,21.00
2018-08-22T07:20:58.823Z,21.40
2018-08-22T07:26:01.828Z,21.60
2018-08-22T07:31:04.897Z,21.80
2018-08-22T07:36:08.061Z,21.80
2018-08-22T07:41:12.282Z,21.90
2018-08-22T07:46:15.492Z,22.00
2018-08-22T07:51:18.606Z,22.30
2018-08-22T07:56:22.385Z,22.40
2018-08-22T08:01:25.601Z,22.60
2018-08-22T08:06:28.617Z,22.80
2018-08-22T08:16:35.405Z,23.00
2018-08-22T08:21:38.592Z,23.30
2018-08-22T08:26:41.968Z,23.50
2018-08-22T08:31:44.983Z,23.50
2018-08-22T08:36:47.989Z,23.50
2018-08-22T08:41:51.079Z,23.70
2018-08-22T08:46:54.109Z,23.80
2018-08-22T08:51:58.822Z,24.10
2018-08-22T08:57:01.835Z,24.10
2018-08-22T09:02:04.941Z,24.60
2018-08-22T09:07:07.964Z,25.20
2018-08-22T09:12:11.027Z,25.80
2018-08-22T09:17:14.947Z,26.40
2018-08-22T09:22:17.968Z,27.80
2018-08-22T09:27:20.984Z,28.60
2018-08-22T09:32:24.087Z,28.90
2018-08-22T09:37:27.090Z,28.20
2018-08-22T09:42:30.114Z,27.60
2018-08-22T09:47:33.658Z,27.50
2018-08-22T09:52:36.696Z,27.60
2018-08-22T09:57:39.726Z,27.70
2018-08-22T10:02:42.859Z,27.40
2018-08-22T10:07:46.011Z,28.00
2018-08-22T10:12:49.052Z,29.20
2018-08-22T10:17:52.089Z,29.90
2018-08-22T10:22:55.095Z,28.80
2018-08-22T10:27:58.178Z,29.60
2018-08-22T10:33:01.187Z,29.20
2018-08-22T10:38:04.208Z,28.60
2018-08-22T10:43:07.299Z,28.00
2018-08-22T10:48:10.345Z,29.40
2018-08-22T10:53:13.442Z,29.60
2018-08-22T10:58:16.472Z,29.30
2018-08-22T11:03:19.492Z,29.80
2018-08-22T11:08:22.510Z,29.50
2018-08-22T11:13:25.519Z,29.60
2018-08-22T11:18:28.552Z,29.30
2018-08-22T11:23:43.127Z,29.10
2018-08-22T11:28:57.523Z,29.50
2018-08-22T11:34:12.352Z,30.40
2018-08-22T11:39:15.366Z,30.80
2018-08-22T11:44:18.375Z,30.40
2018-08-22T11:49:21.547Z,31.00
2018-08-22T11:54:24.549Z,31.20
2018-08-22T11:59:27.602Z,31.50
2018-08-22T12:04:30.632Z,31.40
2018-08-22T12:09:33.707Z,31.80
2018-08-22T12:14:36.757Z,32.30
2018-08-22T12:19:39.791Z,32.10
2018-08-22T12:24:42.926Z,31.80
2018-08-22T12:29:46.013Z,31.90
2018-08-22T12:34:49.048Z,31.50
2018-08-22T12:39:52.057Z,31.30
2018-08-22T12:44:55.095Z,31.50
2018-08-22T12:49:58.105Z,31.80
2018-08-22T12:55:01.194Z,32.40
2018-08-22T13:00:04.523Z,31.20
2018-08-22T13:05:07.640Z,30.70
2018-08-22T13:10:10.795Z,30.30
2018-08-22T13:15:13.818Z,30.50
2018-08-22T13:20:16.853Z,30.30
2018-08-22T13:25:19.968Z,30.30
2018-08-22T13:30:23.047Z,30.80
2018-08-22T13:35:26.103Z,31.20
2018-08-22T13:40:29.183Z,31.00
2018-08-22T13:45:32.200Z,30.50
2018-08-22T13:50:35.207Z,30.70
2018-08-22T13:55:38.229Z,31.30
2018-08-22T14:00:41.242Z,32.00
2018-08-22T14:05:44.301Z,32.40
2018-08-22T14:10:47.350Z,32.20
2018-08-22T14:15:50.403Z,32.70
2018-08-22T14:20:53.444Z,32.70
2018-08-22T14:25:56.568Z,32.70
2018-08-22T14:30:59.749Z,32.10
2018-08-22T14:36:02.882Z,32.30
2018-08-22T14:41:06.277Z,32.70
2018-08-22T14:46:09.556Z,32.50
2018-08-22T14:51:12.634Z,32.00
2018-08-22T14:56:15.916Z,31.60
2018-08-22T15:01:19.027Z,32.00
2018-08-22T15:06:22.155Z,32.40
2018-08-22T15:11:25.405Z,31.80
2018-08-22T15:16:28.569Z,32.10
2018-08-22T15:21:31.591Z,32.80
2018-08-22T15:26:34.785Z,33.40
2018-08-22T15:31:38.399Z,33.40
2018-08-22T15:36:41.474Z,33.70
2018-08-22T15:41:44.513Z,33.30
2018-08-22T15:46:47.537Z,32.90
2018-08-22T15:51:50.568Z,32.50
2018-08-22T15:56:57.871Z,32.10
2018-08-22T16:02:00.893Z,32.40
2018-08-22T16:07:07.937Z,32.90
2018-08-22T16:12:11.031Z,32.00
2018-08-22T16:17:14.205Z,31.80
2018-08-22T16:22:17.254Z,32.30
2018-08-22T16:27:20.284Z,32.50
2018-08-22T16:32:23.676Z,32.40
2018-08-22T16:37:26.773Z,32.50
2018-08-22T16:42:38.288Z,32.50
2018-08-22T16:47:41.318Z,32.70
2018-08-22T16:52:44.335Z,33.10
2018-08-22T16:57:48.342Z,33.50
2018-08-22T17:02:51.383Z,33.50
2018-08-22T17:07:54.432Z,33.90
2018-08-22T17:12:57.547Z,34.30
2018-08-22T17:18:00.572Z,34.50
2018-08-22T17:23:03.660Z,33.90
2018-08-22T17:28:06.681Z,32.70
2018-08-22T17:33:11.292Z,31.40
2018-08-22T17:38:14.419Z,30.40
2018-08-22T17:43:17.430Z,29.80
2018-08-22T17:48:21.883Z,29.30
2018-08-22T17:53:25.013Z,28.90
2018-08-22T17:58:28.043Z,28.50
2018-08-22T18:03:32.070Z,28.20
2018-08-22T18:08:35.150Z,27.90
2018-08-22T18:13:38.251Z,27.60
2018-08-22T18:18:41.369Z,27.30
2018-08-22T18:23:48.653Z,27.10
2018-08-22T18:28:51.699Z,26.90
2018-08-22T18:33:58.726Z,26.70
2018-08-22T18:39:06.292Z,26.50
2018-08-22T18:44:09.308Z,26.30
2018-08-22T18:49:12.380Z,26.10
2018-08-22T18:54:15.459Z,26.00
2018-08-22T18:59:24.845Z,25.80
2018-08-22T19:04:27.950Z,25.70
2018-08-22T19:09:31.028Z,26.20
2018-08-22T19:14:41.859Z,25.70
2018-08-22T19:19:46.178Z,25.40
2018-08-22T19:25:03.823Z,25.20
2018-08-22T19:30:07.215Z,25.00
2018-08-22T19:35:10.251Z,24.90
2018-08-22T19:40:13.272Z,24.80
2018-08-22T19:45:16.334Z,24.70
2018-08-22T19:50:19.542Z,24.60
2018-08-22T19:55:22.589Z,24.50
2018-08-22T20:00:25.595Z,24.40
2018-08-22T20:05:49.402Z,24.20
2018-08-22T20:10:52.416Z,24.20
2018-08-22T20:15:55.539Z,24.00
2018-08-22T20:20:58.648Z,23.90
2018-08-22T20:26:01.877Z,23.80
2018-08-22T20:31:09.325Z,23.70
2018-08-22T20:36:12.550Z,23.70
2018-08-22T20:41:16.646Z,23.60
2018-08-22T20:46:19.873Z,23.50
2018-08-22T20:51:22.947Z,23.30
2018-08-22T20:56:26.871Z,23.30
2018-08-22T21:01:29.900Z,23.20
2018-08-22T21:06:33.017Z,23.20
2018-08-22T21:11:38.184Z,23.10
2018-08-22T21:16:41.208Z,23.00
2018-08-22T21:21:44.304Z,23.10
2018-08-22T21:26:47.429Z,23.00
2018-08-22T21:31:50.470Z,23.00
2018-08-22T21:36:53.594Z,22.90
2018-08-22T21:41:56.791Z,22.90
2018-08-22T21:47:05.156Z,22.70
2018-08-22T21:52:08.197Z,22.70
2018-08-22T21:57:11.179Z,22.60
2018-08-22T22:02:14.188Z,22.50
2018-08-22T22:07:17.275Z,22.40
2018-08-22T22:12:25.778Z,22.40
2018-08-22T22:17:28.806Z,22.40
2018-08-22T22:22:31.820Z,22.30
2018-08-22T22:27:34.829Z,22.20
2018-08-22T22:32:37.832Z,22.20
2018-08-22T22:37:40.855Z,22.10
2018-08-22T22:42:43.875Z,22.00
2018-08-22T22:47:46.917Z,22.00
2018-08-22T22:52:50.078Z,21.90
2018-08-22T22:57:53.116Z,21.90
2018-08-22T23:03:08.744Z,21.80
2018-08-22T23:08:11.755Z,21.80
2018-08-22T23:13:14.785Z,21.70
2018-08-22T23:18:17.825Z,21.70
2018-08-22T23:23:31.882Z,21.60
2018-08-22T23:28:34.949Z,21.60
2018-08-22T23:33:38.108Z,21.50
2018-08-22T23:38:41.138Z,21.40
2018-08-22T23:43:49.697Z,21.40
2018-08-22T23:48:55.040Z,21.30
2018-08-22T23:53:59.442Z,21.20
2018-08-22T23:59:02.531Z,21.20
